Time;durP1;ratioP1;P1;durP2;ratioP2;P2;SDS_P1;SDS_P2;PMS_P1;PMS_P2;Temp;Humidity;BMP_temperature;BMP_pressure;BME280_temperature;BME280_humidity;BME280_pressure;Samples;Min_cycle;Max_cycle;Signal;HPM_P1;HPM_P2
2024/02/01 05:21:21;;;;;;;27.40;14.03;;;;;;;4.11;100.00;101126.38;4851142;29;20074;-92
2024/02/01 05:23:50;;;;;;;25.23;14.57;;;;;;;4.22;100.00;101132.63;4825379;29;20053;-91
2024/02/01 05:26:17;;;;;;;23.80;13.93;;;;;;;4.23;100.00;101139.63;4825081;29;20085;-91
2024/02/01 05:28:44;;;;;;;24.17;13.43;;;;;;;4.27;100.00;101151.00;4826663;29;20133;-92
2024/02/01 05:31:11;;;;;;;25.80;14.97;;;;;;;4.36;100.00;101152.84;4810029;29;20494;-92
2024/02/01 05:33:39;;;;;;;26.50;14.33;;;;;;;4.29;100.00;101151.91;4810269;29;20053;-93
2024/02/01 05:36:07;;;;;;;27.57;14.27;;;;;;;4.38;100.00;101138.06;4795213;29;20081;-93
2024/02/01 05:38:37;;;;;;;28.00;14.73;;;;;;;4.34;100.00;101146.72;4825512;29;20185;-91
2024/02/01 05:41:11;;;;;;;25.10;15.60;;;;;;;4.36;100.00;101147.59;4809937;29;20566;-92
2024/02/01 05:43:40;;;;;;;23.70;14.43;;;;;;;4.39;100.00;101153.78;4839283;29;20053;-92
2024/02/01 05:46:09;;;;;;;29.20;15.60;;;;;;;4.48;100.00;101150.41;4827867;29;20050;-91
2024/02/01 05:48:36;;;;;;;28.47;15.43;;;;;;;4.45;100.00;101145.97;4827934;29;20085;-92
2024/02/01 05:51:04;;;;;;;25.83;14.50;;;;;;;4.48;100.00;101151.28;4843252;29;20527;-93
2024/02/01 05:53:32;;;;;;;23.50;14.10;;;;;;;4.44;100.00;101148.59;4811214;29;20061;-92
2024/02/01 05:55:59;;;;;;;23.80;13.57;;;;;;;4.53;100.00;101157.41;4794480;29;20119;-91
2024/02/01 05:58:27;;;;;;;26.73;15.37;;;;;;;4.66;100.00;101163.69;4824375;29;20106;-91
2024/02/01 06:00:57;;;;;;;25.57;15.00;;;;;;;4.59;100.00;101158.38;4824712;29;20054;-92
2024/02/01 06:03:25;;;;;;;27.13;14.40;;;;;;;4.66;100.00;101163.69;4809289;29;20053;-92
2024/02/01 06:05:52;;;;;;;20.60;12.60;;;;;;;4.67;100.00;101170.69;4824274;29;20523;-92
2024/02/01 06:08:20;;;;;;;25.97;13.40;;;;;;;4.63;100.00;101179.38;4809380;29;20411;-92
2024/02/01 06:10:47;;;;;;;22.13;12.97;;;;;;;4.59;100.00;101187.16;4809378;29;20136;-92
2024/02/01 06:13:14;;;;;;;22.57;12.43;;;;;;;4.61;100.00;101181.06;4794525;29;20436;-92
2024/02/01 06:15:41;;;;;;;21.13;14.13;;;;;;;4.63;100.00;101184.59;4809662;29;20054;-92
2024/02/01 06:18:09;;;;;;;21.60;12.57;;;;;;;4.69;100.00;101173.31;4794609;29;20511;-92
2024/02/01 06:20:36;;;;;;;21.67;12.00;;;;;;;4.69;100.00;101184.66;4809313;29;20046;-92
2024/02/01 06:23:04;;;;;;;25.20;12.33;;;;;;;4.64;100.00;101186.34;4809320;29;20046;-92
2024/02/01 06:25:31;;;;;;;21.43;11.70;;;;;;;4.65;100.00;101189.84;4794699;29;20050;-92
2024/02/01 06:27:58;;;;;;;23.40;14.80;;;;;;;4.72;100.00;101195.19;4824026;29;20135;-92
2024/02/01 06:30:26;;;;;;;20.97;13.97;;;;;;;4.75;100.00;101196.94;4809457;29;20134;-93
2024/02/01 06:32:54;;;;;;;19.90;15.07;;;;;;;4.63;100.00;101196.81;4824444;29;20057;-94
2024/02/01 06:35:22;;;;;;;17.93;11.37;;;;;;;4.55;100.00;101207.19;4810043;29;20054;-92
2024/02/01 06:38:04;;;;;;;22.73;14.50;;;;;;;4.48;100.00;101211.44;4825065;29;20056;-92
2024/02/01 06:40:37;;;;;;;17.50;15.33;;;;;;;4.47;100.00;101219.28;4796715;29;20050;-93
2024/02/01 06:43:17;;;;;;;16.88;11.20;;;;;;;4.55;100.00;101224.63;4825156;29;20409;-93
2024/02/01 06:45:45;;;;;;;19.83;11.03;;;;;;;4.51;100.00;101224.56;4824448;29;20057;-92
2024/02/01 06:48:12;;;;;;;19.63;11.23;;;;;;;4.42;100.00;101228.78;4794155;29;20057;-92
2024/02/01 06:50:57;;;;;;;18.33;10.93;;;;;;;4.42;100.00;101234.03;4794346;29;20046;-92
2024/02/01 06:53:33;;;;;;;17.53;10.30;;;;;;;4.39;100.00;101237.50;4824331;29;20045;-92
2024/02/01 06:56:13;;;;;;;17.53;10.33;;;;;;;4.47;100.00;101242.81;4809114;29;20056;-92
2024/02/01 06:58:49;;;;;;;18.50;12.33;;;;;;;4.33;100.00;101247.84;4824153;29;20106;-92
2024/02/01 07:04:19;;;;;;;20.00;15.67;;;;;;;4.24;100.00;101253.84;4791534;29;20571;-92
2024/02/01 07:07:17;;;;;;;16.10;12.20;;;;;;;4.20;100.00;101261.59;4809615;29;20570;-92
2024/02/01 07:09:57;;;;;;;15.97;11.30;;;;;;;4.30;100.00;101260.91;4797854;29;20157;-92
2024/02/01 07:12:40;;;;;;;15.03;10.80;;;;;;;4.17;100.00;101264.19;4809047;29;20062;-92
2024/02/01 07:18:05;;;;;;;17.37;10.23;;;;;;;4.34;100.00;101277.50;4829746;29;20099;-91
2024/02/01 07:20:35;;;;;;;14.90;9.40;;;;;;;4.27;100.00;101275.66;4843338;29;20628;-92
2024/02/01 07:23:57;;;;;;;14.47;8.87;;;;;;;4.32;100.00;101282.72;4840010;29;20061;-92
2024/02/01 07:26:06;;;;;;;14.80;8.50;;;;;;;4.32;100.00;101285.34;4844803;29;20057;-92
2024/02/01 07:59:26;;;;;;;11.37;8.67;;;;;;;4.51;100.00;101352.78;4826945;29;20137;-92
2024/02/01 08:02:13;;;;;;;10.23;6.10;;;;;;;4.47;100.00;101365.81;4812381;29;20050;-92
2024/02/01 08:07:48;;;;;;;7.17;5.33;;;;;;;4.35;100.00;101358.63;4843666;29;20124;-93
2024/02/01 08:10:19;;;;;;;7.90;5.20;;;;;;;4.48;100.00;101363.19;4814870;29;20121;-92
2024/02/01 08:12:47;;;;;;;11.50;5.87;;;;;;;4.52;100.00;101370.22;4812689;29;20565;-93
2024/02/01 08:15:21;;;;;;;8.07;5.13;;;;;;;4.46;100.00;101366.66;4811686;29;20053;-92
2024/02/01 08:17:50;;;;;;;6.82;4.78;;;;;;;4.42;100.00;101376.19;4797458;29;20078;-93
2024/02/01 08:20:21;;;;;;;9.33;5.20;;;;;;;4.47;100.00;101374.53;4825000;29;20145;-93
2024/02/01 08:22:49;;;;;;;8.93;5.70;;;;;;;4.57;100.00;101378.16;4844631;29;20475;-91
2024/02/01 08:25:16;;;;;;;8.10;4.83;;;;;;;4.49;100.00;101370.19;4828167;29;20075;-92
2024/02/01 08:27:53;;;;;;;7.80;4.60;;;;;;;4.50;100.00;101376.31;4829727;29;20046;-93
2024/02/01 08:30:31;;;;;;;7.53;4.60;;;;;;;4.51;100.00;101373.69;4844706;29;20053;-92
2024/02/01 08:33:05;;;;;;;8.70;4.63;;;;;;;4.72;100.00;101382.75;4829794;29;20081;-93
2024/02/01 08:35:33;;;;;;;7.68;4.53;;;;;;;4.80;100.00;101370.66;4830008;29;20512;-93
2024/02/01 08:38:01;;;;;;;8.87;4.47;;;;;;;4.82;100.00;101362.81;4815245;29;20458;-93
2024/02/01 08:40:30;;;;;;;7.50;4.40;;;;;;;4.84;100.00;101367.22;4845340;29;20045;-93
2024/02/01 08:42:58;;;;;;;9.30;4.37;;;;;;;4.93;100.00;101375.19;4816171;29;20045;-92
2024/02/01 08:45:30;;;;;;;9.80;5.63;;;;;;;4.96;100.00;101372.63;4845390;29;20041;-93
2024/02/01 08:48:02;;;;;;;10.40;4.10;;;;;;;5.06;100.00;101377.13;4830620;29;20077;-92
2024/02/01 08:50:34;;;;;;;12.60;4.70;;;;;;;5.22;100.00;101385.19;4837200;29;20056;-93
2024/02/01 08:53:02;;;;;;;11.20;4.93;;;;;;;5.31;100.00;101377.47;4829883;29;20089;-93
2024/02/01 08:55:30;;;;;;;8.87;4.57;;;;;;;5.51;100.00;101367.19;4815236;29;20054;-92
2024/02/01 08:58:08;;;;;;;12.50;5.03;;;;;;;5.65;100.00;101371.75;4829740;29;20564;-92
2024/02/01 09:00:42;;;;;;;8.80;4.13;;;;;;;5.75;100.00;101374.47;4816330;29;20060;-92
2024/02/01 09:03:15;;;;;;;10.07;3.43;;;;;;;5.87;100.00;101370.22;4829698;29;20505;-92
2024/02/01 09:05:47;;;;;;;9.32;4.63;;;;;;;5.93;100.00;101375.56;4829896;29;20132;-93
2024/02/01 09:08:16;;;;;;;9.90;3.50;;;;;;;5.95;100.00;101378.19;4814226;29;20137;-92
2024/02/01 09:10:51;;;;;;;8.87;3.60;;;;;;;5.98;100.00;101380.88;4845237;29;20102;-93
2024/02/01 09:13:19;;;;;;;9.33;4.70;;;;;;;5.96;100.00;101377.31;4832118;29;20045;-93
2024/02/01 09:15:47;;;;;;;12.00;3.70;;;;;;;5.98;100.00;101382.59;4830865;29;20049;-92
2024/02/01 09:18:17;;;;;;;8.60;3.67;;;;;;;5.97;100.00;101384.34;4844275;29;20057;-93
2024/02/01 09:20:46;;;;;;;9.57;3.90;;;;;;;5.94;100.00;101386.91;4829355;29;20516;-92
2024/02/01 09:23:13;;;;;;;7.33;3.37;;;;;;;5.90;100.00;101395.59;4844335;29;20046;-92
2024/02/01 09:25:41;;;;;;;9.33;3.50;;;;;;;5.87;100.00;101398.19;4844554;29;20056;-93
2024/02/01 09:28:13;;;;;;;7.03;3.30;;;;;;;6.01;100.00;101396.63;4814485;29;20048;-93
2024/02/01 09:30:47;;;;;;;10.70;4.17;;;;;;;6.12;100.00;101415.06;4829523;29;20046;-91
2024/02/01 09:33:16;;;;;;;8.07;3.23;;;;;;;6.10;100.00;101406.31;4830340;29;20053;-92
2024/02/01 09:35:45;;;;;;;9.87;2.93;;;;;;;6.18;100.00;101415.16;4831134;29;20045;-92
2024/02/01 09:38:13;;;;;;;9.33;2.97;;;;;;;6.17;100.00;101408.13;4845564;29;20076;-93
2024/02/01 09:40:43;;;;;;;7.90;2.90;;;;;;;6.20;100.00;101411.66;4844879;29;20109;-93
2024/02/01 09:43:21;;;;;;;8.53;3.03;;;;;;;6.11;100.00;101413.31;4831082;29;20455;-93
2024/02/01 09:55:30;;;;;;;7.67;2.60;;;;;;;6.04;97.95;101415.00;4842488;29;20053;-92
2024/02/01 09:58:04;;;;;;;9.73;3.37;;;;;;;6.12;98.45;101429.06;4801090;29;20514;-90
2024/02/01 10:00:33;;;;;;;13.33;4.07;;;;;;;6.13;96.33;101424.69;4802766;29;20055;-91
2024/02/01 10:03:03;;;;;;;11.40;3.43;;;;;;;6.17;96.49;101411.66;4788033;29;20050;-90
2024/02/01 10:05:32;;;;;;;12.57;4.13;;;;;;;6.16;94.77;101406.38;4788465;29;20051;-89
2024/02/01 10:08:00;;;;;;;11.77;4.07;;;;;;;6.28;96.31;101421.34;4787926;29;20050;-89
2024/02/01 10:10:29;;;;;;;17.27;4.93;;;;;;;6.30;93.68;101424.88;4802918;29;20418;-90
2024/02/01 10:12:58;;;;;;;11.30;2.80;;;;;;;6.37;91.48;101418.81;4803434;29;20050;-90
2024/02/01 10:15:30;;;;;;;14.40;4.53;;;;;;;6.44;90.88;101418.00;4788740;29;20101;-89
2024/02/01 10:17:58;;;;;;;13.07;3.57;;;;;;;6.58;90.00;101428.63;4803469;29;20479;-90
2024/02/01 10:20:39;;;;;;;10.03;4.23;;;;;;;6.38;86.04;101425.81;4788278;29;20399;-89
2024/02/01 10:23:09;;;;;;;13.93;3.40;;;;;;;6.55;86.36;101418.97;4775464;29;20085;-90
2024/02/01 10:25:44;;;;;;;13.33;4.53;;;;;;;6.57;86.10;101414.63;4803075;29;20072;-89
2024/02/01 10:28:18;;;;;;;10.37;3.17;;;;;;;6.65;84.93;101420.81;4788066;29;20506;-90
2024/02/01 10:30:46;;;;;;;11.20;2.95;;;;;;;6.54;82.35;101411.06;4787735;29;20053;-89
2024/02/01 10:33:15;;;;;;;12.13;3.80;;;;;;;6.65;82.62;101397.19;4787845;29;20051;-90
2024/02/01 10:35:47;;;;;;;11.50;3.73;;;;;;;6.82;83.45;101393.81;4802683;29;20461;-90
2024/02/01 10:38:21;;;;;;;12.30;5.47;;;;;;;7.01;83.52;101387.78;4773745;29;20058;-90
2024/02/01 10:40:52;;;;;;;11.25;4.00;;;;;;;7.20;81.89;101399.25;4787659;29;20499;-90
2024/02/01 10:43:24;;;;;;;14.73;3.57;;;;;;;7.21;81.17;101416.78;4802556;29;20047;-89
2024/02/01 10:46:06;;;;;;;14.93;4.60;;;;;;;7.12;79.05;101403.59;4790603;29;20426;-91
2024/02/01 10:48:50;;;;;;;14.47;3.13;;;;;;;7.25;81.00;101411.56;4817578;29;20086;-91
2024/02/01 10:51:17;;;;;;;9.27;3.60;;;;;;;7.26;79.71;101415.06;4820720;29;20066;-90
2024/02/01 10:53:46;;;;;;;8.70;2.87;;;;;;;7.36;80.22;101416.00;4790427;29;20538;-90
2024/02/01 10:56:15;;;;;;;15.47;3.50;;;;;;;7.25;76.49;101416.81;4805326;29;20546;-91
2024/02/01 10:58:47;;;;;;;7.33;3.43;;;;;;;7.29;79.27;101430.84;4790338;29;20529;-90
2024/02/01 11:01:19;;;;;;;11.57;3.10;;;;;;;7.26;78.34;101426.47;4805357;29;20069;-91
2024/02/01 11:03:48;;;;;;;6.57;2.43;;;;;;;7.09;73.54;101414.97;4791238;29;20058;-89
2024/02/01 11:06:17;;;;;;;13.43;2.73;;;;;;;7.12;75.86;101425.50;4805714;29;20085;-91
2024/02/01 11:08:51;;;;;;;11.43;3.80;;;;;;;7.24;75.13;101425.59;4805590;29;20047;-90
2024/02/01 11:11:22;;;;;;;11.67;2.63;;;;;;;6.99;72.89;101410.53;4820935;29;20388;-91
2024/02/01 11:14:12;;;;;;;11.93;3.50;;;;;;;7.00;73.82;101418.44;4805625;29;20391;-90
2024/02/01 11:16:42;;;;;;;7.67;3.40;;;;;;;7.14;74.75;101409.72;4820640;29;20046;-92
2024/02/01 11:19:14;;;;;;;10.70;2.67;;;;;;;7.05;73.09;101423.69;4805359;29;20521;-90
2024/02/01 11:21:49;;;;;;;9.90;4.57;;;;;;;7.11;73.57;101423.75;4805534;29;20129;-90
2024/02/01 11:24:24;;;;;;;9.17;3.00;;;;;;;7.36;72.97;101423.88;4820165;29;20570;-89
2024/02/01 11:26:57;;;;;;;12.90;3.70;;;;;;;7.57;72.02;101419.59;4805173;29;20105;-91
2024/02/01 11:29:26;;;;;;;10.60;3.10;;;;;;;7.70;71.85;101414.38;4806820;29;20050;-90
2024/02/01 11:31:57;;;;;;;13.47;3.67;;;;;;;7.85;70.79;101403.91;4805299;29;20071;-89
2024/02/01 11:34:26;;;;;;;8.53;3.03;;;;;;;7.95;68.98;101415.31;4805033;29;20069;-89
2024/02/01 11:36:57;;;;;;;13.27;4.30;;;;;;;7.97;67.69;101410.94;4824273;29;20085;-90
2024/02/01 11:39:25;;;;;;;9.50;2.90;;;;;;;7.96;68.27;101420.59;4790924;29;20046;-90
2024/02/01 11:41:54;;;;;;;11.13;3.77;;;;;;;7.82;67.47;101430.22;4805385;29;20061;-90
2024/02/01 11:44:23;;;;;;;10.73;3.00;;;;;;;7.79;67.76;101435.44;4805126;29;20061;-90
2024/02/01 11:46:53;;;;;;;12.47;3.00;;;;;;;7.85;69.44;101425.81;4798304;29;20047;-90
2024/02/01 11:49:23;;;;;;;13.83;3.80;;;;;;;7.84;68.53;101416.19;4793664;29;20055;-90
2024/02/01 11:52:13;;;;;;;14.23;4.23;;;;;;;7.60;67.60;101411.72;4802209;29;20074;-90
2024/02/01 11:54:47;;;;;;;11.17;3.20;;;;;;;7.54;68.05;101416.94;4787792;29;20502;-90
2024/02/01 11:57:17;;;;;;;11.97;3.23;;;;;;;7.60;67.09;101413.47;4788033;29;20058;-89
2024/02/01 11:59:45;;;;;;;10.17;3.30;;;;;;;7.63;66.97;101414.34;4789896;29;20054;-89
2024/02/01 12:02:15;;;;;;;16.33;3.43;;;;;;;7.79;68.46;101415.28;4806339;29;20111;-90
2024/02/01 12:04:45;;;;;;;12.50;3.97;;;;;;;7.76;68.96;101419.66;4791017;29;20051;-89
2024/02/01 12:07:23;;;;;;;11.13;4.03;;;;;;;7.78;67.71;101424.03;4805219;29;20392;-89
2024/02/01 12:09:50;;;;;;;13.17;3.17;;;;;;;7.64;68.13;101415.22;4805119;29;20046;-91
2024/02/01 12:12:23;;;;;;;7.73;3.03;;;;;;;7.65;67.98;101414.38;4805183;29;20141;-90
2024/02/01 12:14:53;;;;;;;11.97;3.00;;;;;;;7.82;68.43;101424.94;4806290;29;20059;-90
2024/02/01 12:17:24;;;;;;;10.40;3.17;;;;;;;7.96;67.99;101412.69;4805916;29;20059;-90
2024/02/01 12:19:51;;;;;;;12.93;3.60;;;;;;;8.09;67.36;101440.81;4805282;29;20506;-90
2024/02/01 12:22:28;;;;;;;12.00;4.27;;;;;;;7.96;65.63;101427.59;4791582;29;20436;-90
2024/02/01 12:24:57;;;;;;;10.77;3.53;;;;;;;7.90;65.42;101423.19;4805637;29;20129;-91
2024/02/01 12:27:25;;;;;;;8.27;3.33;;;;;;;7.99;65.56;101440.75;4791364;29;20384;-91
2024/02/01 12:29:53;;;;;;;8.57;3.03;;;;;;;8.01;66.08;101432.00;4806207;29;20414;-91
2024/02/01 12:32:21;;;;;;;10.07;3.20;;;;;;;7.98;66.30;101431.09;4789854;29;20392;-90
2024/02/01 12:34:48;;;;;;;8.97;3.37;;;;;;;7.68;65.62;101432.78;4804802;29;20111;-91
2024/02/01 12:37:15;;;;;;;11.17;3.07;;;;;;;7.76;67.63;101428.44;4810853;29;20499;-90
2024/02/01 12:39:43;;;;;;;11.10;3.47;;;;;;;7.70;67.35;101422.25;4816370;29;20058;-90
2024/02/01 12:42:14;;;;;;;10.20;2.90;;;;;;;7.64;66.20;101423.09;4804772;29;20374;-90
2024/02/01 12:44:43;;;;;;;9.30;3.90;;;;;;;7.66;66.62;101449.44;4804595;29;20464;-90
2024/02/01 12:47:10;;;;;;;11.07;3.57;;;;;;;7.63;67.05;101424.88;4790090;29;20047;-90
2024/02/01 12:49:38;;;;;;;9.43;2.77;;;;;;;7.50;65.63;101448.50;4804630;29;20081;-90
2024/02/01 12:52:06;;;;;;;9.87;2.87;;;;;;;7.44;66.35;101453.72;4789854;29;20514;-90
2024/02/01 12:54:39;;;;;;;12.53;3.20;;;;;;;7.38;67.15;101444.03;4789331;29;20081;-91
2024/02/01 12:57:08;;;;;;;8.18;2.80;;;;;;;7.28;66.92;101461.50;4789020;29;20051;-90
2024/02/01 12:59:36;;;;;;;8.87;3.93;;;;;;;7.30;69.44;101466.75;4803946;29;20061;-90
2024/02/01 13:02:05;;;;;;;15.73;4.00;;;;;;;7.23;67.25;101451.81;4789199;29;20073;-89
2024/02/01 13:04:32;;;;;;;8.37;3.87;;;;;;;7.24;67.94;101457.13;4804007;29;20076;-91
2024/02/01 13:06:59;;;;;;;11.87;2.90;;;;;;;7.27;69.08;101456.25;4789156;29;20103;-90
2024/02/01 13:09:29;;;;;;;10.10;2.93;;;;;;;7.22;69.44;101450.94;4804167;29;20061;-91
2024/02/01 13:11:59;;;;;;;11.30;3.97;;;;;;;7.30;68.63;101456.25;4803342;29;20043;-90
2024/02/01 13:14:30;;;;;;;7.93;3.50;;;;;;;7.25;68.81;101455.38;4804609;29;20137;-90
2024/02/01 13:17:09;;;;;;;10.50;3.13;;;;;;;7.25;69.22;101453.63;4791103;29;20305;-91
2024/02/01 13:19:40;;;;;;;9.20;3.73;;;;;;;7.15;67.70;101457.06;4804942;29;20100;-91
2024/02/01 13:22:08;;;;;;;8.93;2.50;;;;;;;7.32;69.30;101455.41;4790170;29;20050;-91
2024/02/01 13:24:35;;;;;;;14.93;4.27;;;;;;;7.28;69.89;101455.38;4804838;29;20477;-90
2024/02/01 13:27:02;;;;;;;11.80;4.33;;;;;;;7.32;68.43;101465.94;4790357;29;20091;-90
2024/02/01 13:29:30;;;;;;;10.33;3.43;;;;;;;7.29;68.95;101457.13;4789870;29;20139;-90
2024/02/01 13:31:57;;;;;;;8.70;2.87;;;;;;;7.23;68.62;101457.09;4788907;29;20480;-90
2024/02/01 13:34:24;;;;;;;12.17;4.07;;;;;;;7.42;68.43;101461.59;4803943;29;20046;-90
2024/02/01 13:36:51;;;;;;;13.97;3.80;;;;;;;7.44;67.84;101458.97;4803963;29;20103;-90
2024/02/01 13:39:18;;;;;;;13.83;4.63;;;;;;;7.49;68.31;101468.66;4805424;29;20456;-89
2024/02/01 13:41:46;;;;;;;10.47;4.00;;;;;;;7.52;67.67;101463.38;4803843;29;20507;-90
2024/02/01 13:44:15;;;;;;;10.07;3.40;;;;;;;7.45;67.50;101456.34;4803302;29;20054;-90
2024/02/01 13:46:42;;;;;;;9.53;3.40;;;;;;;7.35;67.56;101459.81;4803224;29;20054;-90
2024/02/01 13:49:10;;;;;;;12.17;3.10;;;;;;;7.27;68.12;101467.63;4803134;29;20059;-91
2024/02/01 13:51:39;;;;;;;13.47;3.90;;;;;;;7.11;67.68;101468.41;4804205;29;20130;-90
2024/02/01 13:54:06;;;;;;;12.63;3.43;;;;;;;7.26;69.32;101476.41;4788725;29;20055;-90
2024/02/01 13:56:38;;;;;;;9.07;2.83;;;;;;;7.34;68.55;101465.94;4803288;29;20494;-89
2024/02/01 13:59:06;;;;;;;8.20;3.60;;;;;;;7.29;68.94;101480.78;4773274;29;20511;-90
2024/02/01 14:01:33;;;;;;;16.80;4.43;;;;;;;7.19;66.57;101477.22;4802969;29;20549;-90
2024/02/01 14:04:00;;;;;;;12.00;3.00;;;;;;;7.19;66.67;101482.47;4803433;29;20138;-90
2024/02/01 14:06:27;;;;;;;13.17;3.60;;;;;;;7.27;67.03;101479.91;4788035;29;20115;-90
2024/02/01 14:08:55;;;;;;;13.97;3.47;;;;;;;7.34;67.37;101476.44;4803030;29;20058;-90
2024/02/01 14:11:22;;;;;;;12.10;3.50;;;;;;;7.21;65.92;101485.09;4802784;29;20526;-90
2024/02/01 14:13:50;;;;;;;19.70;4.07;;;;;;;7.29;66.57;101493.91;4803151;29;20414;-91
2024/02/01 14:16:17;;;;;;;7.70;2.87;;;;;;;7.27;67.56;101490.41;4803865;29;20113;-89
2024/02/01 14:18:45;;;;;;;12.70;3.13;;;;;;;7.29;67.01;101502.69;4790725;29;20049;-90
2024/02/01 14:21:12;;;;;;;10.13;3.70;;;;;;;7.36;66.91;101508.00;4812438;29;20045;-90
2024/02/01 14:23:40;;;;;;;12.10;3.40;;;;;;;7.40;67.34;101499.25;4805489;29;20137;-90
2024/02/01 14:26:08;;;;;;;12.17;3.70;;;;;;;7.31;66.98;101500.97;4806046;29;20046;-89
2024/02/01 14:28:35;;;;;;;11.73;3.20;;;;;;;7.40;66.44;101499.25;4821368;29;20076;-90
2024/02/01 14:31:04;;;;;;;11.83;3.20;;;;;;;7.42;66.64;101490.50;4806187;29;20043;-90
2024/02/01 14:33:31;;;;;;;15.37;3.53;;;;;;;7.31;66.74;101507.94;4806246;29;20530;-90
2024/02/01 14:35:59;;;;;;;8.23;3.33;;;;;;;7.34;66.88;101508.88;4820840;29;20137;-90
2024/02/01 14:38:26;;;;;;;11.83;3.70;;;;;;;7.29;67.63;101518.47;4806254;29;20046;-90
2024/02/01 14:40:53;;;;;;;5.30;2.90;;;;;;;7.30;67.49;101507.06;4806202;29;20054;-90
2024/02/01 14:43:21;;;;;;;12.97;3.13;;;;;;;7.27;67.74;101499.19;4808148;29;20051;-91
2024/02/01 14:45:49;;;;;;;11.47;3.53;;;;;;;7.13;67.90;101503.44;4809664;29;20149;-90
2024/02/01 14:48:16;;;;;;;11.43;2.90;;;;;;;7.15;67.69;101495.59;4822034;29;20205;-90
2024/02/01 14:50:43;;;;;;;10.30;4.73;;;;;;;7.08;67.61;101504.31;4793137;29;20503;-90
2024/02/01 14:53:10;;;;;;;16.80;3.90;;;;;;;7.02;68.17;101505.13;4803465;29;20050;-90
2024/02/01 14:55:37;;;;;;;8.77;2.87;;;;;;;7.00;68.30;101527.88;4802371;29;20084;-91
2024/02/01 14:58:04;;;;;;;12.13;3.10;;;;;;;6.99;68.10;101526.13;4772987;29;20193;-90
2024/02/01 15:00:36;;;;;;;16.13;3.50;;;;;;;6.92;69.37;101524.31;4802485;29;20051;-90
2024/02/01 15:03:06;;;;;;;9.03;3.00;;;;;;;6.90;68.97;101519.06;4802414;29;20567;-91
2024/02/01 15:05:33;;;;;;;15.57;4.70;;;;;;;6.81;68.77;101521.63;4802662;29;20055;-90
2024/02/01 15:08:01;;;;;;;11.57;3.53;;;;;;;6.73;69.78;101534.66;4787661;29;20051;-90
2024/02/01 15:10:28;;;;;;;9.73;3.20;;;;;;;6.72;70.33;101526.75;4802811;29;20119;-89
2024/02/01 15:12:56;;;;;;;12.80;4.13;;;;;;;6.68;72.01;101538.13;4802481;29;20604;-91
2024/02/01 15:15:23;;;;;;;11.10;3.23;;;;;;;6.60;72.55;101527.53;4803368;29;20058;-91
2024/02/01 15:17:50;;;;;;;12.47;3.50;;;;;;;6.55;72.18;101526.59;4808473;29;20042;-89
2024/02/01 15:20:18;;;;;;;10.73;3.30;;;;;;;6.58;72.46;101531.03;4789349;29;20268;-90
2024/02/01 15:22:48;;;;;;;10.77;2.90;;;;;;;6.61;72.72;101534.53;4786732;29;20073;-90
2024/02/01 15:25:15;;;;;;;11.20;3.97;;;;;;;6.62;72.28;101535.41;4802135;29;20047;-90
2024/02/01 15:27:43;;;;;;;10.60;3.43;;;;;;;6.64;72.05;101542.47;4796147;29;20055;-89
2024/02/01 15:30:14;;;;;;;8.53;3.37;;;;;;;6.66;73.31;101540.72;4754780;30;20538;-90
2024/02/01 15:32:42;;;;;;;9.63;3.43;;;;;;;6.60;73.78;101551.16;4790065;29;20081;-89
2024/02/01 15:35:10;;;;;;;15.97;3.47;;;;;;;6.54;74.83;101542.34;4785189;29;20063;-90
2024/02/01 15:37:37;;;;;;;13.77;4.37;;;;;;;6.57;75.00;101552.88;4786999;30;20465;-90
2024/02/01 15:40:05;;;;;;;10.60;3.00;;;;;;;6.53;75.24;101549.34;4787072;29;20089;-90
2024/02/01 15:42:32;;;;;;;15.73;4.10;;;;;;;6.42;73.71;101551.84;4771612;30;20047;-89
2024/02/01 15:45:00;;;;;;;11.20;3.20;;;;;;;6.46;75.54;101555.38;4803019;29;20078;-91
2024/02/01 15:47:28;;;;;;;14.20;3.97;;;;;;;6.53;75.76;101565.09;4782524;29;20050;-90
